sensor_id;sensor_type;location;lat;lon;timestamp;temperature;humidity
11540;DHT22;5826;54.756;9.192;2022-08-25T00:00:40;21.20;99.90
11540;DHT22;5826;54.756;9.192;2022-08-25T00:03:06;21.30;99.90
11540;DHT22;5826;54.756;9.192;2022-08-25T00:05:32;21.20;99.90
11540;DHT22;5826;54.756;9.192;2022-08-25T00:07:58;21.20;99.90
11540;DHT22;5826;54.756;9.192;2022-08-25T00:10:23;21.20;99.90
11540;DHT22;5826;54.756;9.192;2022-08-25T00:12:49;21.20;99.90
11540;DHT22;5826;54.756;9.192;2022-08-25T00:15:15;21.20;99.90
11540;DHT22;5826;54.756;9.192;2022-08-25T00:17:40;21.10;99.90
11540;DHT22;5826;54.756;9.192;2022-08-25T00:20:06;21.10;99.90
11540;DHT22;5826;54.756;9.192;2022-08-25T00:22:34;21.10;99.90
11540;DHT22;5826;54.756;9.192;2022-08-25T00:24:59;21.10;99.90
11540;DHT22;5826;54.756;9.192;2022-08-25T00:27:25;21.00;99.90
11540;DHT22;5826;54.756;9.192;2022-08-25T00:29:50;21.00;99.90
11540;DHT22;5826;54.756;9.192;2022-08-25T00:32:16;21.00;99.90
11540;DHT22;5826;54.756;9.192;2022-08-25T00:34:43;21.00;99.90
11540;DHT22;5826;54.756;9.192;2022-08-25T00:37:09;21.00;99.90
11540;DHT22;5826;54.756;9.192;2022-08-25T00:39:35;21.00;99.90
11540;DHT22;5826;54.756;9.192;2022-08-25T00:42:01;20.90;99.90
11540;DHT22;5826;54.756;9.192;2022-08-25T00:44:31;20.90;99.90
11540;DHT22;5826;54.756;9.192;2022-08-25T00:46:59;20.90;99.90
11540;DHT22;5826;54.756;9.192;2022-08-25T00:49:41;20.90;99.90
11540;DHT22;5826;54.756;9.192;2022-08-25T00:52:21;20.90;99.90
11540;DHT22;5826;54.756;9.192;2022-08-25T00:54:58;20.90;99.90
11540;DHT22;5826;54.756;9.192;2022-08-25T00:57:29;20.90;99.90
11540;DHT22;5826;54.756;9.192;2022-08-25T00:59:57;20.90;99.90
11540;DHT22;5826;54.756;9.192;2022-08-25T01:02:23;20.80;99.90
11540;DHT22;5826;54.756;9.192;2022-08-25T01:04:49;20.80;99.90
11540;DHT22;5826;54.756;9.192;2022-08-25T01:07:16;20.80;99.90
11540;DHT22;5826;54.756;9.192;2022-08-25T01:09:43;20.80;99.90
11540;DHT22;5826;54.756;9.192;2022-08-25T01:12:10;20.80;99.90
11540;DHT22;5826;54.756;9.192;2022-08-25T01:14:37;20.70;99.90
11540;DHT22;5826;54.756;9.192;2022-08-25T01:17:03;20.70;99.90
11540;DHT22;5826;54.756;9.192;2022-08-25T01:19:29;20.70;99.90
11540;DHT22;5826;54.756;9.192;2022-08-25T01:21:58;20.60;99.90
11540;DHT22;5826;54.756;9.192;2022-08-25T01:24:53;20.60;99.90
11540;DHT22;5826;54.756;9.192;2022-08-25T01:27:20;20.60;99.90
11540;DHT22;5826;54.756;9.192;2022-08-25T01:29:46;20.60;99.90
11540;DHT22;5826;54.756;9.192;2022-08-25T01:32:13;20.60;99.90
11540;DHT22;5826;54.756;9.192;2022-08-25T01:34:41;20.50;99.90
11540;DHT22;5826;54.756;9.192;2022-08-25T01:37:08;20.50;99.90
11540;DHT22;5826;54.756;9.192;2022-08-25T01:39:34;20.50;99.90
11540;DHT22;5826;54.756;9.192;2022-08-25T01:42:23;20.50;99.90
11540;DHT22;5826;54.756;9.192;2022-08-25T01:44:52;20.50;99.90
11540;DHT22;5826;54.756;9.192;2022-08-25T01:47:17;20.50;99.90
11540;DHT22;5826;54.756;9.192;2022-08-25T01:49:43;20.50;99.90
11540;DHT22;5826;54.756;9.192;2022-08-25T01:52:20;20.50;99.90
11540;DHT22;5826;54.756;9.192;2022-08-25T01:54:47;20.50;99.90
11540;DHT22;5826;54.756;9.192;2022-08-25T01:57:13;20.40;99.90
11540;DHT22;5826;54.756;9.192;2022-08-25T01:59:38;20.40;99.90
11540;DHT22;5826;54.756;9.192;2022-08-25T02:02:05;20.40;99.90
11540;DHT22;5826;54.756;9.192;2022-08-25T02:04:31;20.40;99.90
11540;DHT22;5826;54.756;9.192;2022-08-25T02:06:59;20.40;99.90
11540;DHT22;5826;54.756;9.192;2022-08-25T02:09:24;20.40;99.90
11540;DHT22;5826;54.756;9.192;2022-08-25T02:11:50;20.30;99.90
11540;DHT22;5826;54.756;9.192;2022-08-25T02:14:16;20.30;99.90
11540;DHT22;5826;54.756;9.192;2022-08-25T02:16:46;20.30;99.90
11540;DHT22;5826;54.756;9.192;2022-08-25T02:19:13;20.30;99.90
11540;DHT22;5826;54.756;9.192;2022-08-25T02:21:38;20.30;99.90
11540;DHT22;5826;54.756;9.192;2022-08-25T02:24:04;20.20;99.90
11540;DHT22;5826;54.756;9.192;2022-08-25T02:26:30;20.20;99.90
11540;DHT22;5826;54.756;9.192;2022-08-25T02:28:56;20.20;99.90
11540;DHT22;5826;54.756;9.192;2022-08-25T02:31:23;20.20;99.90
11540;DHT22;5826;54.756;9.192;2022-08-25T02:33:50;20.20;99.90
11540;DHT22;5826;54.756;9.192;2022-08-25T02:36:16;20.20;99.90
11540;DHT22;5826;54.756;9.192;2022-08-25T02:38:43;20.10;99.90
11540;DHT22;5826;54.756;9.192;2022-08-25T02:41:14;20.10;99.90
11540;DHT22;5826;54.756;9.192;2022-08-25T02:43:41;20.10;99.90
11540;DHT22;5826;54.756;9.192;2022-08-25T02:46:08;20.10;99.90
11540;DHT22;5826;54.756;9.192;2022-08-25T02:48:34;20.10;99.90
11540;DHT22;5826;54.756;9.192;2022-08-25T02:51:01;20.10;99.90
11540;DHT22;5826;54.756;9.192;2022-08-25T02:53:27;20.00;99.90
11540;DHT22;5826;54.756;9.192;2022-08-25T02:55:53;20.00;99.90
11540;DHT22;5826;54.756;9.192;2022-08-25T02:58:19;20.00;99.90
11540;DHT22;5826;54.756;9.192;2022-08-25T03:00:45;20.00;99.90
11540;DHT22;5826;54.756;9.192;2022-08-25T03:03:11;20.00;99.90
11540;DHT22;5826;54.756;9.192;2022-08-25T03:05:37;20.00;99.90
11540;DHT22;5826;54.756;9.192;2022-08-25T03:08:04;20.00;99.90
11540;DHT22;5826;54.756;9.192;2022-08-25T03:10:30;20.00;99.90
11540;DHT22;5826;54.756;9.192;2022-08-25T03:12:56;20.00;99.90
11540;DHT22;5826;54.756;9.192;2022-08-25T03:15:21;20.00;99.90
11540;DHT22;5826;54.756;9.192;2022-08-25T03:17:49;20.00;99.90
11540;DHT22;5826;54.756;9.192;2022-08-25T03:20:15;19.90;99.90
11540;DHT22;5826;54.756;9.192;2022-08-25T03:22:41;19.90;99.90
11540;DHT22;5826;54.756;9.192;2022-08-25T03:25:07;19.90;99.90
11540;DHT22;5826;54.756;9.192;2022-08-25T03:27:52;20.40;99.90
11540;DHT22;5826;54.756;9.192;2022-08-25T03:30:18;19.90;99.90
11540;DHT22;5826;54.756;9.192;2022-08-25T03:32:43;19.90;99.90
11540;DHT22;5826;54.756;9.192;2022-08-25T03:35:09;19.90;99.90
11540;DHT22;5826;54.756;9.192;2022-08-25T03:37:36;19.90;99.90
11540;DHT22;5826;54.756;9.192;2022-08-25T03:40:03;19.90;99.90
11540;DHT22;5826;54.756;9.192;2022-08-25T03:42:29;19.90;99.90
11540;DHT22;5826;54.756;9.192;2022-08-25T03:44:55;19.90;99.90
11540;DHT22;5826;54.756;9.192;2022-08-25T03:47:20;19.80;99.90
11540;DHT22;5826;54.756;9.192;2022-08-25T03:49:49;19.80;99.90
11540;DHT22;5826;54.756;9.192;2022-08-25T03:52:14;19.80;99.90
11540;DHT22;5826;54.756;9.192;2022-08-25T03:54:43;19.80;99.90
11540;DHT22;5826;54.756;9.192;2022-08-25T03:57:08;19.80;99.90
11540;DHT22;5826;54.756;9.192;2022-08-25T03:59:34;19.80;99.90
11540;DHT22;5826;54.756;9.192;2022-08-25T04:02:03;19.90;99.90
11540;DHT22;5826;54.756;9.192;2022-08-25T04:04:29;19.90;99.90
11540;DHT22;5826;54.756;9.192;2022-08-25T04:06:55;19.90;99.90
11540;DHT22;5826;54.756;9.192;2022-08-25T04:09:21;19.90;99.90
11540;DHT22;5826;54.756;9.192;2022-08-25T04:11:46;19.90;99.90
11540;DHT22;5826;54.756;9.192;2022-08-25T04:14:12;19.90;99.90
11540;DHT22;5826;54.756;9.192;2022-08-25T04:16:38;19.90;99.90
11540;DHT22;5826;54.756;9.192;2022-08-25T04:19:06;19.80;99.90
11540;DHT22;5826;54.756;9.192;2022-08-25T04:21:34;19.80;99.90
11540;DHT22;5826;54.756;9.192;2022-08-25T04:23:59;19.80;99.90
11540;DHT22;5826;54.756;9.192;2022-08-25T04:26:28;19.80;99.90
11540;DHT22;5826;54.756;9.192;2022-08-25T04:28:56;19.80;99.90
11540;DHT22;5826;54.756;9.192;2022-08-25T04:31:21;19.80;99.90
11540;DHT22;5826;54.756;9.192;2022-08-25T04:33:47;19.80;99.90
11540;DHT22;5826;54.756;9.192;2022-08-25T04:36:16;19.80;99.90
11540;DHT22;5826;54.756;9.192;2022-08-25T04:38:42;19.80;99.90
11540;DHT22;5826;54.756;9.192;2022-08-25T04:41:10;19.80;99.90
11540;DHT22;5826;54.756;9.192;2022-08-25T04:43:37;19.80;99.90
11540;DHT22;5826;54.756;9.192;2022-08-25T04:46:11;19.80;99.90
11540;DHT22;5826;54.756;9.192;2022-08-25T04:48:37;19.80;99.90
11540;DHT22;5826;54.756;9.192;2022-08-25T04:51:14;19.80;99.90
11540;DHT22;5826;54.756;9.192;2022-08-25T04:53:40;19.80;99.90
11540;DHT22;5826;54.756;9.192;2022-08-25T04:56:12;19.80;99.90
11540;DHT22;5826;54.756;9.192;2022-08-25T04:58:38;19.90;99.90
11540;DHT22;5826;54.756;9.192;2022-08-25T05:01:10;19.90;99.90
11540;DHT22;5826;54.756;9.192;2022-08-25T05:03:37;19.90;99.90
11540;DHT22;5826;54.756;9.192;2022-08-25T05:06:03;19.90;99.90
11540;DHT22;5826;54.756;9.192;2022-08-25T05:08:29;19.90;99.90
11540;DHT22;5826;54.756;9.192;2022-08-25T05:10:55;19.90;99.90
11540;DHT22;5826;54.756;9.192;2022-08-25T05:13:22;20.00;99.90
11540;DHT22;5826;54.756;9.192;2022-08-25T05:15:52;20.00;99.90
11540;DHT22;5826;54.756;9.192;2022-08-25T05:18:19;20.00;99.90
11540;DHT22;5826;54.756;9.192;2022-08-25T05:20:45;20.00;99.90
11540;DHT22;5826;54.756;9.192;2022-08-25T05:23:11;20.10;99.90
11540;DHT22;5826;54.756;9.192;2022-08-25T05:25:36;20.10;99.90
11540;DHT22;5826;54.756;9.192;2022-08-25T05:28:03;20.10;99.90
11540;DHT22;5826;54.756;9.192;2022-08-25T05:30:29;20.20;99.90
11540;DHT22;5826;54.756;9.192;2022-08-25T05:32:54;20.20;99.90
11540;DHT22;5826;54.756;9.192;2022-08-25T05:35:20;20.20;99.90
11540;DHT22;5826;54.756;9.192;2022-08-25T05:37:46;20.30;99.90
11540;DHT22;5826;54.756;9.192;2022-08-25T05:40:11;20.30;99.90
11540;DHT22;5826;54.756;9.192;2022-08-25T05:42:37;20.40;99.90
11540;DHT22;5826;54.756;9.192;2022-08-25T05:45:04;20.40;99.90
11540;DHT22;5826;54.756;9.192;2022-08-25T05:47:30;20.50;99.90
11540;DHT22;5826;54.756;9.192;2022-08-25T05:49:55;20.50;99.90
11540;DHT22;5826;54.756;9.192;2022-08-25T05:52:21;20.60;99.90
11540;DHT22;5826;54.756;9.192;2022-08-25T05:54:46;20.60;99.90
11540;DHT22;5826;54.756;9.192;2022-08-25T05:57:12;20.60;99.90
11540;DHT22;5826;54.756;9.192;2022-08-25T05:59:38;20.70;99.90
11540;DHT22;5826;54.756;9.192;2022-08-25T06:02:04;20.80;99.90
11540;DHT22;5826;54.756;9.192;2022-08-25T06:04:48;20.80;99.90
11540;DHT22;5826;54.756;9.192;2022-08-25T06:07:14;20.80;99.90
11540;DHT22;5826;54.756;9.192;2022-08-25T06:09:40;20.80;99.90
11540;DHT22;5826;54.756;9.192;2022-08-25T06:12:07;20.90;99.90
11540;DHT22;5826;54.756;9.192;2022-08-25T06:14:33;20.90;99.90
11540;DHT22;5826;54.756;9.192;2022-08-25T06:16:59;21.00;99.90
11540;DHT22;5826;54.756;9.192;2022-08-25T06:19:25;21.00;99.90
11540;DHT22;5826;54.756;9.192;2022-08-25T06:21:56;21.00;99.90
11540;DHT22;5826;54.756;9.192;2022-08-25T06:24:26;21.10;99.90
11540;DHT22;5826;54.756;9.192;2022-08-25T06:26:52;21.10;99.90
11540;DHT22;5826;54.756;9.192;2022-08-25T06:29:18;21.20;99.90
11540;DHT22;5826;54.756;9.192;2022-08-25T06:31:44;21.20;99.90
11540;DHT22;5826;54.756;9.192;2022-08-25T06:34:10;21.30;99.90
11540;DHT22;5826;54.756;9.192;2022-08-25T06:36:36;21.30;99.90
11540;DHT22;5826;54.756;9.192;2022-08-25T06:39:02;21.30;99.90
11540;DHT22;5826;54.756;9.192;2022-08-25T06:41:27;21.40;99.90
11540;DHT22;5826;54.756;9.192;2022-08-25T06:43:54;21.40;99.90
11540;DHT22;5826;54.756;9.192;2022-08-25T06:46:22;21.40;99.90
11540;DHT22;5826;54.756;9.192;2022-08-25T06:48:48;21.40;99.90
11540;DHT22;5826;54.756;9.192;2022-08-25T06:51:17;21.50;99.90
11540;DHT22;5826;54.756;9.192;2022-08-25T06:53:44;21.50;99.90
11540;DHT22;5826;54.756;9.192;2022-08-25T06:56:10;21.60;99.90
11540;DHT22;5826;54.756;9.192;2022-08-25T06:58:36;21.60;99.90
11540;DHT22;5826;54.756;9.192;2022-08-25T07:01:14;21.60;99.90
11540;DHT22;5826;54.756;9.192;2022-08-25T07:03:40;21.70;99.90
11540;DHT22;5826;54.756;9.192;2022-08-25T07:06:06;21.70;99.90
11540;DHT22;5826;54.756;9.192;2022-08-25T07:08:32;21.70;99.90
11540;DHT22;5826;54.756;9.192;2022-08-25T07:11:04;21.80;99.90
11540;DHT22;5826;54.756;9.192;2022-08-25T07:13:30;21.90;99.90
11540;DHT22;5826;54.756;9.192;2022-08-25T07:15:56;22.10;99.90
11540;DHT22;5826;54.756;9.192;2022-08-25T07:18:21;22.20;99.90
11540;DHT22;5826;54.756;9.192;2022-08-25T07:20:47;22.30;99.90
11540;DHT22;5826;54.756;9.192;2022-08-25T07:23:12;22.30;99.90
11540;DHT22;5826;54.756;9.192;2022-08-25T07:25:38;22.40;99.90
11540;DHT22;5826;54.756;9.192;2022-08-25T07:28:04;22.40;99.90
11540;DHT22;5826;54.756;9.192;2022-08-25T07:30:30;22.40;99.90
11540;DHT22;5826;54.756;9.192;2022-08-25T07:32:56;22.40;99.90
11540;DHT22;5826;54.756;9.192;2022-08-25T07:35:22;22.50;99.90
11540;DHT22;5826;54.756;9.192;2022-08-25T07:37:51;22.60;99.90
11540;DHT22;5826;54.756;9.192;2022-08-25T07:40:20;22.60;99.90
11540;DHT22;5826;54.756;9.192;2022-08-25T07:42:49;22.60;99.90
11540;DHT22;5826;54.756;9.192;2022-08-25T07:45:15;22.70;99.90
11540;DHT22;5826;54.756;9.192;2022-08-25T07:47:41;22.70;99.90
11540;DHT22;5826;54.756;9.192;2022-08-25T07:50:08;22.80;99.90
11540;DHT22;5826;54.756;9.192;2022-08-25T07:52:34;22.80;99.90
11540;DHT22;5826;54.756;9.192;2022-08-25T07:55:00;22.90;99.90
11540;DHT22;5826;54.756;9.192;2022-08-25T07:57:26;22.90;99.90
11540;DHT22;5826;54.756;9.192;2022-08-25T07:59:53;22.90;99.90
11540;DHT22;5826;54.756;9.192;2022-08-25T08:02:19;23.00;99.90
11540;DHT22;5826;54.756;9.192;2022-08-25T08:04:49;23.00;99.90
11540;DHT22;5826;54.756;9.192;2022-08-25T08:07:16;23.10;99.90
11540;DHT22;5826;54.756;9.192;2022-08-25T08:09:43;23.10;99.90
11540;DHT22;5826;54.756;9.192;2022-08-25T08:12:08;23.20;99.90
11540;DHT22;5826;54.756;9.192;2022-08-25T08:14:33;23.30;99.90
11540;DHT22;5826;54.756;9.192;2022-08-25T08:17:03;23.40;99.90
11540;DHT22;5826;54.756;9.192;2022-08-25T08:19:28;23.50;99.90
11540;DHT22;5826;54.756;9.192;2022-08-25T08:21:55;23.60;99.90
11540;DHT22;5826;54.756;9.192;2022-08-25T08:24:20;23.60;99.90
11540;DHT22;5826;54.756;9.192;2022-08-25T08:26:46;23.70;99.90
11540;DHT22;5826;54.756;9.192;2022-08-25T08:29:12;23.80;99.90
11540;DHT22;5826;54.756;9.192;2022-08-25T08:31:38;24.00;99.90
11540;DHT22;5826;54.756;9.192;2022-08-25T08:34:04;24.00;99.90
11540;DHT22;5826;54.756;9.192;2022-08-25T08:36:30;24.10;99.90
11540;DHT22;5826;54.756;9.192;2022-08-25T08:38:56;24.20;99.90
11540;DHT22;5826;54.756;9.192;2022-08-25T08:44:18;24.20;99.90
11540;DHT22;5826;54.756;9.192;2022-08-25T08:49:39;24.20;99.90
11540;DHT22;5826;54.756;9.192;2022-08-25T08:52:08;24.30;99.90
11540;DHT22;5826;54.756;9.192;2022-08-25T08:54:37;24.40;99.90
11540;DHT22;5826;54.756;9.192;2022-08-25T08:57:12;24.50;99.90
11540;DHT22;5826;54.756;9.192;2022-08-25T08:59:52;24.50;99.90
11540;DHT22;5826;54.756;9.192;2022-08-25T09:02:39;24.70;99.90
11540;DHT22;5826;54.756;9.192;2022-08-25T09:05:10;24.70;99.90
11540;DHT22;5826;54.756;9.192;2022-08-25T09:07:58;24.80;99.90
11540;DHT22;5826;54.756;9.192;2022-08-25T09:10:38;24.90;99.90
11540;DHT22;5826;54.756;9.192;2022-08-25T09:13:28;24.90;99.90
11540;DHT22;5826;54.756;9.192;2022-08-25T09:16:15;25.00;99.90
11540;DHT22;5826;54.756;9.192;2022-08-25T09:19:20;25.00;99.90
11540;DHT22;5826;54.756;9.192;2022-08-25T09:21:59;25.00;99.90
11540;DHT22;5826;54.756;9.192;2022-08-25T09:25:13;25.10;99.90
11540;DHT22;5826;54.756;9.192;2022-08-25T09:30:21;25.00;99.90
11540;DHT22;5826;54.756;9.192;2022-08-25T09:32:52;25.10;99.90
11540;DHT22;5826;54.756;9.192;2022-08-25T09:35:28;25.30;99.90
11540;DHT22;5826;54.756;9.192;2022-08-25T09:37:57;25.40;99.90
11540;DHT22;5826;54.756;9.192;2022-08-25T09:40:23;25.50;99.90
11540;DHT22;5826;54.756;9.192;2022-08-25T09:42:52;25.70;99.90
11540;DHT22;5826;54.756;9.192;2022-08-25T09:45:35;25.80;99.90
11540;DHT22;5826;54.756;9.192;2022-08-25T09:50:53;26.00;99.90
11540;DHT22;5826;54.756;9.192;2022-08-25T09:53:21;26.00;99.90
11540;DHT22;5826;54.756;9.192;2022-08-25T09:55:56;26.00;99.90
11540;DHT22;5826;54.756;9.192;2022-08-25T09:58:24;26.00;99.90
11540;DHT22;5826;54.756;9.192;2022-08-25T10:01:20;26.00;99.90
11540;DHT22;5826;54.756;9.192;2022-08-25T10:03:58;25.90;99.90
11540;DHT22;5826;54.756;9.192;2022-08-25T10:06:26;25.70;99.90
11540;DHT22;5826;54.756;9.192;2022-08-25T10:08:57;25.90;99.90
11540;DHT22;5826;54.756;9.192;2022-08-25T10:11:42;26.00;99.90
11540;DHT22;5826;54.756;9.192;2022-08-25T10:14:33;26.20;99.90
11540;DHT22;5826;54.756;9.192;2022-08-25T10:17:27;26.30;99.90
11540;DHT22;5826;54.756;9.192;2022-08-25T10:22:36;26.60;99.90
11540;DHT22;5826;54.756;9.192;2022-08-25T10:25:04;26.60;99.90
11540;DHT22;5826;54.756;9.192;2022-08-25T10:27:57;26.70;99.90
11540;DHT22;5826;54.756;9.192;2022-08-25T10:36:13;26.90;99.70
11540;DHT22;5826;54.756;9.192;2022-08-25T10:38:50;27.10;99.70
11540;DHT22;5826;54.756;9.192;2022-08-25T10:49:54;27.50;99.50
11540;DHT22;5826;54.756;9.192;2022-08-25T10:52:36;27.70;99.50
11540;DHT22;5826;54.756;9.192;2022-08-25T10:58:22;27.80;99.20
11540;DHT22;5826;54.756;9.192;2022-08-25T11:01:02;27.80;99.40
11540;DHT22;5826;54.756;9.192;2022-08-25T11:03:44;27.60;99.40
11540;DHT22;5826;54.756;9.192;2022-08-25T11:06:37;27.40;99.50
11540;DHT22;5826;54.756;9.192;2022-08-25T11:09:07;27.40;99.60
11540;DHT22;5826;54.756;9.192;2022-08-25T11:11:45;27.40;99.60
11540;DHT22;5826;54.756;9.192;2022-08-25T11:14:38;27.40;99.20
11540;DHT22;5826;54.756;9.192;2022-08-25T11:17:16;27.60;98.90
11540;DHT22;5826;54.756;9.192;2022-08-25T11:19:48;27.40;99.50
11540;DHT22;5826;54.756;9.192;2022-08-25T11:22:41;27.30;99.50
11540;DHT22;5826;54.756;9.192;2022-08-25T11:25:13;27.40;99.30
11540;DHT22;5826;54.756;9.192;2022-08-25T11:28:09;27.50;99.60
11540;DHT22;5826;54.756;9.192;2022-08-25T11:30:36;27.70;99.00
11540;DHT22;5826;54.756;9.192;2022-08-25T11:33:03;27.90;99.30
11540;DHT22;5826;54.756;9.192;2022-08-25T11:35:37;28.00;99.20
11540;DHT22;5826;54.756;9.192;2022-08-25T11:44:06;28.00;99.30
11540;DHT22;5826;54.756;9.192;2022-08-25T11:46:45;28.00;99.00
11540;DHT22;5826;54.756;9.192;2022-08-25T11:49:38;28.10;99.30
11540;DHT22;5826;54.756;9.192;2022-08-25T11:55:18;28.40;99.00
11540;DHT22;5826;54.756;9.192;2022-08-25T11:57:46;28.40;99.10
11540;DHT22;5826;54.756;9.192;2022-08-25T12:00:14;28.40;99.10
11540;DHT22;5826;54.756;9.192;2022-08-25T12:02:44;28.40;99.20
11540;DHT22;5826;54.756;9.192;2022-08-25T12:23:33;29.50;98.20
11540;DHT22;5826;54.756;9.192;2022-08-25T12:28:57;29.70;98.50
11540;DHT22;5826;54.756;9.192;2022-08-25T12:34:23;29.90;98.00
11540;DHT22;5826;54.756;9.192;2022-08-25T12:37:19;29.70;97.80
11540;DHT22;5826;54.756;9.192;2022-08-25T12:39:57;29.60;97.80
11540;DHT22;5826;54.756;9.192;2022-08-25T12:42:36;29.50;98.20
11540;DHT22;5826;54.756;9.192;2022-08-25T12:47:38;29.10;98.20
11540;DHT22;5826;54.756;9.192;2022-08-25T12:50:24;28.90;98.70
11540;DHT22;5826;54.756;9.192;2022-08-25T12:52:52;29.10;97.70
11540;DHT22;5826;54.756;9.192;2022-08-25T12:55:19;29.20;98.50
11540;DHT22;5826;54.756;9.192;2022-08-25T12:57:52;29.40;98.50
11540;DHT22;5826;54.756;9.192;2022-08-25T13:00:25;29.60;98.00
11540;DHT22;5826;54.756;9.192;2022-08-25T13:05:49;30.00;97.60
11540;DHT22;5826;54.756;9.192;2022-08-25T13:16:24;30.90;96.30
11540;DHT22;5826;54.756;9.192;2022-08-25T13:18:52;31.00;96.90
11540;DHT22;5826;54.756;9.192;2022-08-25T13:21:27;31.00;96.90
11540;DHT22;5826;54.756;9.192;2022-08-25T13:23:57;31.40;97.00
11540;DHT22;5826;54.756;9.192;2022-08-25T13:26:37;31.60;96.90
11540;DHT22;5826;54.756;9.192;2022-08-25T13:31:32;31.60;96.40
11540;DHT22;5826;54.756;9.192;2022-08-25T13:34:14;31.60;96.50
11540;DHT22;5826;54.756;9.192;2022-08-25T13:36:43;31.60;96.60
11540;DHT22;5826;54.756;9.192;2022-08-25T13:39:27;31.90;96.50
11540;DHT22;5826;54.756;9.192;2022-08-25T13:41:58;32.10;96.30
11540;DHT22;5826;54.756;9.192;2022-08-25T13:44:27;32.30;96.10
11540;DHT22;5826;54.756;9.192;2022-08-25T13:47:12;32.60;96.00
11540;DHT22;5826;54.756;9.192;2022-08-25T13:49:40;32.80;95.10
11540;DHT22;5826;54.756;9.192;2022-08-25T13:52:07;33.10;95.50
11540;DHT22;5826;54.756;9.192;2022-08-25T13:54:40;33.20;95.50
11540;DHT22;5826;54.756;9.192;2022-08-25T13:57:24;33.20;95.40
11540;DHT22;5826;54.756;9.192;2022-08-25T13:59:55;32.70;94.00
11540;DHT22;5826;54.756;9.192;2022-08-25T14:02:59;32.60;95.90
11540;DHT22;5826;54.756;9.192;2022-08-25T14:05:36;33.20;93.60
11540;DHT22;5826;54.756;9.192;2022-08-25T14:08:04;34.10;95.20
11540;DHT22;5826;54.756;9.192;2022-08-25T14:10:43;34.80;94.90
11540;DHT22;5826;54.756;9.192;2022-08-25T14:13:57;35.40;94.60
11540;DHT22;5826;54.756;9.192;2022-08-25T14:16:20;35.70;94.80
11540;DHT22;5826;54.756;9.192;2022-08-25T14:18:49;35.90;94.20
11540;DHT22;5826;54.756;9.192;2022-08-25T14:21:16;36.20;94.90
11540;DHT22;5826;54.756;9.192;2022-08-25T14:23:42;36.50;95.10
11540;DHT22;5826;54.756;9.192;2022-08-25T14:26:08;36.80;95.60
11540;DHT22;5826;54.756;9.192;2022-08-25T14:28:33;36.50;96.10
11540;DHT22;5826;54.756;9.192;2022-08-25T14:31:08;36.40;96.50
11540;DHT22;5826;54.756;9.192;2022-08-25T14:33:53;36.30;96.50
11540;DHT22;5826;54.756;9.192;2022-08-25T14:36:19;36.30;97.00
11540;DHT22;5826;54.756;9.192;2022-08-25T14:38:45;36.30;97.90
11540;DHT22;5826;54.756;9.192;2022-08-25T14:41:10;36.40;98.30
11540;DHT22;5826;54.756;9.192;2022-08-25T14:43:36;36.40;98.90
11540;DHT22;5826;54.756;9.192;2022-08-25T14:46:08;36.60;99.10
11540;DHT22;5826;54.756;9.192;2022-08-25T14:48:40;36.60;99.20
11540;DHT22;5826;54.756;9.192;2022-08-25T14:51:08;36.50;99.40
11540;DHT22;5826;54.756;9.192;2022-08-25T14:53:35;36.30;99.30
11540;DHT22;5826;54.756;9.192;2022-08-25T14:56:01;36.20;99.90
11540;DHT22;5826;54.756;9.192;2022-08-25T14:58:27;36.20;99.80
11540;DHT22;5826;54.756;9.192;2022-08-25T15:00:54;36.10;99.90
11540;DHT22;5826;54.756;9.192;2022-08-25T15:03:27;36.00;99.90
11540;DHT22;5826;54.756;9.192;2022-08-25T15:05:53;36.00;99.60
11540;DHT22;5826;54.756;9.192;2022-08-25T15:08:19;35.90;99.90
11540;DHT22;5826;54.756;9.192;2022-08-25T15:11:03;35.80;99.90
11540;DHT22;5826;54.756;9.192;2022-08-25T15:13:28;35.70;99.90
11540;DHT22;5826;54.756;9.192;2022-08-25T15:15:54;35.80;99.90
11540;DHT22;5826;54.756;9.192;2022-08-25T15:18:20;35.90;99.90
11540;DHT22;5826;54.756;9.192;2022-08-25T15:20:46;35.80;99.60
11540;DHT22;5826;54.756;9.192;2022-08-25T15:23:12;35.50;99.90
11540;DHT22;5826;54.756;9.192;2022-08-25T15:25:45;35.20;99.90
11540;DHT22;5826;54.756;9.192;2022-08-25T15:28:11;35.20;98.30
11540;DHT22;5826;54.756;9.192;2022-08-25T15:30:37;35.20;99.80
11540;DHT22;5826;54.756;9.192;2022-08-25T15:33:03;35.30;99.60
11540;DHT22;5826;54.756;9.192;2022-08-25T15:35:29;35.40;99.30
11540;DHT22;5826;54.756;9.192;2022-08-25T15:37:55;35.50;99.30
11540;DHT22;5826;54.756;9.192;2022-08-25T15:40:20;35.40;99.60
11540;DHT22;5826;54.756;9.192;2022-08-25T15:42:46;35.30;99.40
11540;DHT22;5826;54.756;9.192;2022-08-25T15:45:11;35.30;99.30
11540;DHT22;5826;54.756;9.192;2022-08-25T15:47:37;35.30;99.00
11540;DHT22;5826;54.756;9.192;2022-08-25T15:50:12;35.20;98.70
11540;DHT22;5826;54.756;9.192;2022-08-25T15:52:39;35.00;98.50
11540;DHT22;5826;54.756;9.192;2022-08-25T15:55:05;34.50;98.70
11540;DHT22;5826;54.756;9.192;2022-08-25T15:57:31;34.10;98.60
11540;DHT22;5826;54.756;9.192;2022-08-25T15:59:57;33.80;98.70
11540;DHT22;5826;54.756;9.192;2022-08-25T16:02:23;33.50;98.30
11540;DHT22;5826;54.756;9.192;2022-08-25T16:04:49;33.50;98.30
11540;DHT22;5826;54.756;9.192;2022-08-25T16:07:16;33.40;98.00
11540;DHT22;5826;54.756;9.192;2022-08-25T16:09:41;33.20;98.00
11540;DHT22;5826;54.756;9.192;2022-08-25T16:12:07;33.10;97.90
11540;DHT22;5826;54.756;9.192;2022-08-25T16:14:32;33.00;97.40
11540;DHT22;5826;54.756;9.192;2022-08-25T16:16:58;32.90;97.70
11540;DHT22;5826;54.756;9.192;2022-08-25T16:19:24;32.70;97.30
11540;DHT22;5826;54.756;9.192;2022-08-25T16:21:50;32.80;97.50
11540;DHT22;5826;54.756;9.192;2022-08-25T16:24:15;32.40;97.40
11540;DHT22;5826;54.756;9.192;2022-08-25T16:26:41;32.40;97.30
11540;DHT22;5826;54.756;9.192;2022-08-25T16:29:09;32.10;97.20
11540;DHT22;5826;54.756;9.192;2022-08-25T16:31:36;31.90;97.20
11540;DHT22;5826;54.756;9.192;2022-08-25T16:34:01;31.70;97.20
11540;DHT22;5826;54.756;9.192;2022-08-25T16:36:27;31.50;97.30
11540;DHT22;5826;54.756;9.192;2022-08-25T16:38:54;31.30;97.20
11540;DHT22;5826;54.756;9.192;2022-08-25T16:41:23;31.10;97.20
11540;DHT22;5826;54.756;9.192;2022-08-25T16:43:49;30.90;97.20
11540;DHT22;5826;54.756;9.192;2022-08-25T16:46:17;30.70;97.20
11540;DHT22;5826;54.756;9.192;2022-08-25T16:48:44;30.80;97.50
11540;DHT22;5826;54.756;9.192;2022-08-25T16:51:12;30.40;97.30
11540;DHT22;5826;54.756;9.192;2022-08-25T16:53:39;30.20;97.30
11540;DHT22;5826;54.756;9.192;2022-08-25T16:56:23;30.00;97.30
11540;DHT22;5826;54.756;9.192;2022-08-25T16:58:57;29.70;97.30
11540;DHT22;5826;54.756;9.192;2022-08-25T17:01:25;29.50;97.50
11540;DHT22;5826;54.756;9.192;2022-08-25T17:03:52;29.20;97.50
11540;DHT22;5826;54.756;9.192;2022-08-25T17:06:18;28.90;97.60
11540;DHT22;5826;54.756;9.192;2022-08-25T17:08:44;28.60;97.70
11540;DHT22;5826;54.756;9.192;2022-08-25T17:11:13;28.30;97.90
11540;DHT22;5826;54.756;9.192;2022-08-25T17:13:41;28.00;98.00
11540;DHT22;5826;54.756;9.192;2022-08-25T17:16:08;27.60;98.10
11540;DHT22;5826;54.756;9.192;2022-08-25T17:18:34;27.70;98.30
11540;DHT22;5826;54.756;9.192;2022-08-25T17:21:03;27.10;98.20